sensor_id;sensor_type;location;lat;lon;timestamp;P1;durP1;ratioP1;P2;durP2;ratioP2
15443;SDS011;7822;48.146;11.576;2022-08-19T00:00:41;4.15;;;3.50;;
15443;SDS011;7822;48.146;11.576;2022-08-19T00:03:09;3.90;;;3.50;;
15443;SDS011;7822;48.146;11.576;2022-08-19T00:05:37;3.28;;;2.97;;
15443;SDS011;7822;48.146;11.576;2022-08-19T00:08:06;4.05;;;3.65;;
15443;SDS011;7822;48.146;11.576;2022-08-19T00:10:34;3.47;;;3.17;;
15443;SDS011;7822;48.146;11.576;2022-08-19T00:16:40;4.22;;;3.58;;
15443;SDS011;7822;48.146;11.576;2022-08-19T00:19:10;3.70;;;3.40;;
15443;SDS011;7822;48.146;11.576;2022-08-19T00:21:37;5.05;;;4.10;;
15443;SDS011;7822;48.146;11.576;2022-08-19T00:24:06;4.15;;;3.85;;
15443;SDS011;7822;48.146;11.576;2022-08-19T00:26:35;4.30;;;3.90;;
15443;SDS011;7822;48.146;11.576;2022-08-19T00:29:04;5.03;;;4.57;;
15443;SDS011;7822;48.146;11.576;2022-08-19T00:31:33;5.10;;;4.60;;
15443;SDS011;7822;48.146;11.576;2022-08-19T00:34:03;5.72;;;3.90;;
15443;SDS011;7822;48.146;11.576;2022-08-19T00:36:31;4.82;;;4.43;;
15443;SDS011;7822;48.146;11.576;2022-08-19T00:38:59;5.22;;;4.72;;
15443;SDS011;7822;48.146;11.576;2022-08-19T00:41:27;5.55;;;5.07;;
15443;SDS011;7822;48.146;11.576;2022-08-19T00:47:42;5.45;;;4.95;;
15443;SDS011;7822;48.146;11.576;2022-08-19T00:50:12;4.95;;;4.55;;
15443;SDS011;7822;48.146;11.576;2022-08-19T00:52:43;5.40;;;4.90;;
15443;SDS011;7822;48.146;11.576;2022-08-19T00:55:13;5.10;;;4.50;;
15443;SDS011;7822;48.146;11.576;2022-08-19T00:57:46;6.10;;;5.55;;
15443;SDS011;7822;48.146;11.576;2022-08-19T01:00:18;5.80;;;5.22;;
15443;SDS011;7822;48.146;11.576;2022-08-19T01:02:47;5.45;;;4.95;;
15443;SDS011;7822;48.146;11.576;2022-08-19T01:05:17;6.30;;;5.70;;
15443;SDS011;7822;48.146;11.576;2022-08-19T01:07:48;5.85;;;5.30;;
15443;SDS011;7822;48.146;11.576;2022-08-19T01:10:19;7.20;;;6.50;;
15443;SDS011;7822;48.146;11.576;2022-08-19T01:12:49;7.07;;;6.47;;
15443;SDS011;7822;48.146;11.576;2022-08-19T01:15:19;6.60;;;6.00;;
15443;SDS011;7822;48.146;11.576;2022-08-19T01:44:20;8.98;;;7.53;;
15443;SDS011;7822;48.146;11.576;2022-08-19T01:46:50;8.27;;;7.47;;
15443;SDS011;7822;48.146;11.576;2022-08-19T01:49:19;8.23;;;7.43;;
15443;SDS011;7822;48.146;11.576;2022-08-19T01:51:49;7.13;;;6.43;;
15443;SDS011;7822;48.146;11.576;2022-08-19T01:54:17;6.82;;;6.10;;
15443;SDS011;7822;48.146;11.576;2022-08-19T01:56:53;7.55;;;6.85;;
15443;SDS011;7822;48.146;11.576;2022-08-19T01:59:26;7.72;;;6.95;;
15443;SDS011;7822;48.146;11.576;2022-08-19T02:01:54;7.35;;;6.65;;
15443;SDS011;7822;48.146;11.576;2022-08-19T02:04:22;6.97;;;6.28;;
15443;SDS011;7822;48.146;11.576;2022-08-19T02:06:51;6.75;;;6.15;;
15443;SDS011;7822;48.146;11.576;2022-08-19T02:09:19;6.65;;;6.05;;
15443;SDS011;7822;48.146;11.576;2022-08-19T02:16:50;6.28;;;5.47;;
15443;SDS011;7822;48.146;11.576;2022-08-19T02:19:17;5.63;;;5.13;;
15443;SDS011;7822;48.146;11.576;2022-08-19T02:21:43;5.90;;;5.40;;
15443;SDS011;7822;48.146;11.576;2022-08-19T02:24:10;6.20;;;5.53;;
15443;SDS011;7822;48.146;11.576;2022-08-19T02:26:38;5.93;;;5.32;;
15443;SDS011;7822;48.146;11.576;2022-08-19T02:29:06;6.22;;;5.63;;
15443;SDS011;7822;48.146;11.576;2022-08-19T02:31:33;6.10;;;5.55;;
15443;SDS011;7822;48.146;11.576;2022-08-19T02:34:03;6.10;;;5.50;;
15443;SDS011;7822;48.146;11.576;2022-08-19T02:36:31;5.70;;;5.07;;
15443;SDS011;7822;48.146;11.576;2022-08-19T02:38:58;6.00;;;5.40;;
15443;SDS011;7822;48.146;11.576;2022-08-19T02:45:13;6.57;;;5.68;;
15443;SDS011;7822;48.146;11.576;2022-08-19T02:47:42;5.65;;;5.15;;
15443;SDS011;7822;48.146;11.576;2022-08-19T02:50:11;5.18;;;4.65;;
15443;SDS011;7822;48.146;11.576;2022-08-19T02:52:40;5.53;;;5.03;;
15443;SDS011;7822;48.146;11.576;2022-08-19T02:55:08;6.43;;;5.80;;
15443;SDS011;7822;48.146;11.576;2022-08-19T02:57:36;6.20;;;5.70;;
15443;SDS011;7822;48.146;11.576;2022-08-19T03:00:04;6.20;;;5.45;;
15443;SDS011;7822;48.146;11.576;2022-08-19T03:02:34;5.40;;;4.90;;
15443;SDS011;7822;48.146;11.576;2022-08-19T03:08:50;6.10;;;5.53;;
15443;SDS011;7822;48.146;11.576;2022-08-19T03:11:20;5.80;;;5.30;;
15443;SDS011;7822;48.146;11.576;2022-08-19T03:13:49;5.82;;;5.22;;
15443;SDS011;7822;48.146;11.576;2022-08-19T03:16:20;5.20;;;4.70;;
15443;SDS011;7822;48.146;11.576;2022-08-19T03:18:50;6.45;;;5.85;;
15443;SDS011;7822;48.146;11.576;2022-08-19T03:21:18;5.88;;;5.38;;
15443;SDS011;7822;48.146;11.576;2022-08-19T03:23:53;5.40;;;4.95;;
15443;SDS011;7822;48.146;11.576;2022-08-19T03:26:21;6.13;;;5.53;;
15443;SDS011;7822;48.146;11.576;2022-08-19T03:28:49;5.93;;;5.40;;
15443;SDS011;7822;48.146;11.576;2022-08-19T03:31:24;5.90;;;5.30;;
15443;SDS011;7822;48.146;11.576;2022-08-19T03:34:10;5.35;;;4.85;;
15443;SDS011;7822;48.146;11.576;2022-08-19T03:41:38;4.45;;;4.05;;
15443;SDS011;7822;48.146;11.576;2022-08-19T03:44:13;4.80;;;4.40;;
15443;SDS011;7822;48.146;11.576;2022-08-19T03:46:43;4.72;;;4.32;;
15443;SDS011;7822;48.146;11.576;2022-08-19T03:49:11;5.53;;;4.95;;
15443;SDS011;7822;48.146;11.576;2022-08-19T03:51:39;5.50;;;5.00;;
15443;SDS011;7822;48.146;11.576;2022-08-19T03:54:08;5.47;;;4.97;;
15443;SDS011;7822;48.146;11.576;2022-08-19T03:56:37;5.28;;;4.78;;
15443;SDS011;7822;48.146;11.576;2022-08-19T03:59:06;4.70;;;4.30;;
15443;SDS011;7822;48.146;11.576;2022-08-19T04:05:27;7.18;;;5.53;;
15443;SDS011;7822;48.146;11.576;2022-08-19T04:07:54;5.45;;;4.95;;
15443;SDS011;7822;48.146;11.576;2022-08-19T04:10:24;6.22;;;5.70;;
15443;SDS011;7822;48.146;11.576;2022-08-19T04:12:50;6.05;;;5.47;;
15443;SDS011;7822;48.146;11.576;2022-08-19T04:15:17;5.22;;;4.72;;
15443;SDS011;7822;48.146;11.576;2022-08-19T04:17:44;5.65;;;5.10;;
15443;SDS011;7822;48.146;11.576;2022-08-19T04:20:10;5.88;;;5.38;;
15443;SDS011;7822;48.146;11.576;2022-08-19T04:26:25;7.07;;;6.20;;
15443;SDS011;7822;48.146;11.576;2022-08-19T04:28:52;7.28;;;6.57;;
15443;SDS011;7822;48.146;11.576;2022-08-19T04:31:22;7.60;;;6.90;;
15443;SDS011;7822;48.146;11.576;2022-08-19T04:33:51;6.75;;;5.95;;
15443;SDS011;7822;48.146;11.576;2022-08-19T04:36:18;7.55;;;6.75;;
15443;SDS011;7822;48.146;11.576;2022-08-19T04:38:46;6.97;;;6.25;;
15443;SDS011;7822;48.146;11.576;2022-08-19T04:41:13;7.70;;;6.70;;
15443;SDS011;7822;48.146;11.576;2022-08-19T04:49:06;6.63;;;5.72;;
15443;SDS011;7822;48.146;11.576;2022-08-19T04:51:39;7.40;;;6.32;;
15443;SDS011;7822;48.146;11.576;2022-08-19T04:54:07;7.07;;;6.47;;
15443;SDS011;7822;48.146;11.576;2022-08-19T04:56:34;7.63;;;6.38;;
15443;SDS011;7822;48.146;11.576;2022-08-19T04:59:01;6.70;;;5.88;;
15443;SDS011;7822;48.146;11.576;2022-08-19T05:01:29;7.50;;;6.75;;
15443;SDS011;7822;48.146;11.576;2022-08-19T05:03:58;7.63;;;6.82;;
15443;SDS011;7822;48.146;11.576;2022-08-19T05:10:50;7.03;;;6.32;;
15443;SDS011;7822;48.146;11.576;2022-08-19T05:13:19;7.95;;;6.82;;
15443;SDS011;7822;48.146;11.576;2022-08-19T05:15:52;7.10;;;6.40;;
15443;SDS011;7822;48.146;11.576;2022-08-19T05:18:21;7.18;;;6.10;;
15443;SDS011;7822;48.146;11.576;2022-08-19T05:21:07;6.68;;;5.82;;
15443;SDS011;7822;48.146;11.576;2022-08-19T05:35:27;7.95;;;6.68;;
15443;SDS011;7822;48.146;11.576;2022-08-19T05:38:00;8.27;;;6.10;;
15443;SDS011;7822;48.146;11.576;2022-08-19T05:40:28;8.50;;;7.00;;
15443;SDS011;7822;48.146;11.576;2022-08-19T05:42:55;7.60;;;5.97;;
15443;SDS011;7822;48.146;11.576;2022-08-19T05:45:23;8.35;;;7.10;;
15443;SDS011;7822;48.146;11.576;2022-08-19T05:47:51;7.72;;;6.57;;
15443;SDS011;7822;48.146;11.576;2022-08-19T05:50:19;7.47;;;6.65;;
15443;SDS011;7822;48.146;11.576;2022-08-19T06:00:38;8.18;;;7.38;;
15443;SDS011;7822;48.146;11.576;2022-08-19T06:03:07;7.75;;;6.97;;
15443;SDS011;7822;48.146;11.576;2022-08-19T06:05:38;9.25;;;8.30;;
15443;SDS011;7822;48.146;11.576;2022-08-19T06:08:17;9.95;;;8.77;;
15443;SDS011;7822;48.146;11.576;2022-08-19T06:10:44;9.65;;;8.65;;
15443;SDS011;7822;48.146;11.576;2022-08-19T06:13:12;8.75;;;7.85;;
15443;SDS011;7822;48.146;11.576;2022-08-19T06:15:41;9.50;;;8.52;;
15443;SDS011;7822;48.146;11.576;2022-08-19T06:25:45;10.35;;;9.27;;
15443;SDS011;7822;48.146;11.576;2022-08-19T06:28:13;11.13;;;10.05;;
15443;SDS011;7822;48.146;11.576;2022-08-19T06:30:43;10.23;;;9.25;;
15443;SDS011;7822;48.146;11.576;2022-08-19T06:33:11;11.07;;;9.95;;
15443;SDS011;7822;48.146;11.576;2022-08-19T06:43:08;9.38;;;8.48;;
15443;SDS011;7822;48.146;11.576;2022-08-19T06:45:36;9.55;;;8.43;;
15443;SDS011;7822;48.146;11.576;2022-08-19T07:18:06;12.18;;;10.90;;
15443;SDS011;7822;48.146;11.576;2022-08-19T07:20:37;12.98;;;11.68;;
15443;SDS011;7822;48.146;11.576;2022-08-19T07:30:36;13.60;;;11.25;;
15443;SDS011;7822;48.146;11.576;2022-08-19T07:33:10;11.85;;;10.65;;
15443;SDS011;7822;48.146;11.576;2022-08-19T07:35:39;11.98;;;10.82;;
15443;SDS011;7822;48.146;11.576;2022-08-19T07:38:07;14.57;;;12.52;;
15443;SDS011;7822;48.146;11.576;2022-08-19T07:40:35;14.80;;;13.20;;
15443;SDS011;7822;48.146;11.576;2022-08-19T07:43:03;15.98;;;14.27;;
15443;SDS011;7822;48.146;11.576;2022-08-19T07:45:39;14.43;;;12.93;;
15443;SDS011;7822;48.146;11.576;2022-08-19T07:48:09;16.65;;;14.55;;
15443;SDS011;7822;48.146;11.576;2022-08-19T07:50:37;14.80;;;13.18;;
15443;SDS011;7822;48.146;11.576;2022-08-19T07:53:05;17.70;;;15.77;;
15443;SDS011;7822;48.146;11.576;2022-08-19T07:55:33;15.90;;;14.20;;
15443;SDS011;7822;48.146;11.576;2022-08-19T08:01:56;14.77;;;13.27;;
15443;SDS011;7822;48.146;11.576;2022-08-19T08:04:27;16.13;;;14.25;;
15443;SDS011;7822;48.146;11.576;2022-08-19T08:14:42;18.65;;;15.38;;
15443;SDS011;7822;48.146;11.576;2022-08-19T08:17:12;16.45;;;14.75;;
15443;SDS011;7822;48.146;11.576;2022-08-19T08:19:57;17.08;;;15.05;;
15443;SDS011;7822;48.146;11.576;2022-08-19T08:22:25;16.42;;;14.80;;
15443;SDS011;7822;48.146;11.576;2022-08-19T08:25:12;15.38;;;13.75;;
15443;SDS011;7822;48.146;11.576;2022-08-19T08:27:43;17.08;;;14.98;;
15443;SDS011;7822;48.146;11.576;2022-08-19T08:30:17;16.10;;;14.40;;
15443;SDS011;7822;48.146;11.576;2022-08-19T08:44:12;15.55;;;14.00;;
15443;SDS011;7822;48.146;11.576;2022-08-19T08:46:48;17.42;;;15.63;;
15443;SDS011;7822;48.146;11.576;2022-08-19T08:49:29;19.92;;;16.70;;
15443;SDS011;7822;48.146;11.576;2022-08-19T08:52:03;16.05;;;14.18;;
15443;SDS011;7822;48.146;11.576;2022-08-19T08:54:35;17.70;;;15.25;;
15443;SDS011;7822;48.146;11.576;2022-08-19T08:57:21;17.10;;;13.50;;
15443;SDS011;7822;48.146;11.576;2022-08-19T09:00:03;17.90;;;16.10;;
15443;SDS011;7822;48.146;11.576;2022-08-19T09:02:41;19.65;;;16.98;;
15443;SDS011;7822;48.146;11.576;2022-08-19T09:05:09;18.75;;;16.73;;
15443;SDS011;7822;48.146;11.576;2022-08-19T09:07:42;18.95;;;16.75;;
15443;SDS011;7822;48.146;11.576;2022-08-19T09:33:02;18.60;;;14.98;;
15443;SDS011;7822;48.146;11.576;2022-08-19T09:35:30;16.05;;;13.55;;
15443;SDS011;7822;48.146;11.576;2022-08-19T09:38:15;16.02;;;14.25;;
15443;SDS011;7822;48.146;11.576;2022-08-19T09:40:43;19.50;;;15.85;;
15443;SDS011;7822;48.146;11.576;2022-08-19T09:43:11;17.25;;;14.38;;
15443;SDS011;7822;48.146;11.576;2022-08-19T09:45:38;17.27;;;14.70;;
15443;SDS011;7822;48.146;11.576;2022-08-19T09:48:08;17.20;;;14.50;;
15443;SDS011;7822;48.146;11.576;2022-08-19T09:50:44;19.50;;;14.55;;
15443;SDS011;7822;48.146;11.576;2022-08-19T09:53:17;16.38;;;13.95;;
15443;SDS011;7822;48.146;11.576;2022-08-19T09:55:45;16.17;;;14.45;;
15443;SDS011;7822;48.146;11.576;2022-08-19T09:58:13;18.40;;;14.68;;
15443;SDS011;7822;48.146;11.576;2022-08-19T10:00:41;16.40;;;14.63;;
15443;SDS011;7822;48.146;11.576;2022-08-19T10:03:17;17.73;;;14.80;;
15443;SDS011;7822;48.146;11.576;2022-08-19T10:05:45;16.27;;;13.93;;
15443;SDS011;7822;48.146;11.576;2022-08-19T10:08:21;16.15;;;13.70;;
15443;SDS011;7822;48.146;11.576;2022-08-19T10:10:52;13.70;;;12.20;;
15443;SDS011;7822;48.146;11.576;2022-08-19T10:13:22;15.45;;;12.90;;
15443;SDS011;7822;48.146;11.576;2022-08-19T10:15:52;15.98;;;12.88;;
15443;SDS011;7822;48.146;11.576;2022-08-19T10:18:24;15.02;;;13.35;;
15443;SDS011;7822;48.146;11.576;2022-08-19T10:21:01;14.13;;;12.18;;
15443;SDS011;7822;48.146;11.576;2022-08-19T10:23:37;15.00;;;13.15;;
15443;SDS011;7822;48.146;11.576;2022-08-19T10:26:07;15.63;;;13.38;;
15443;SDS011;7822;48.146;11.576;2022-08-19T10:28:35;13.68;;;12.00;;
15443;SDS011;7822;48.146;11.576;2022-08-19T10:31:04;14.88;;;13.27;;
15443;SDS011;7822;48.146;11.576;2022-08-19T10:33:35;14.00;;;12.27;;
15443;SDS011;7822;48.146;11.576;2022-08-19T10:36:19;13.85;;;11.82;;
15443;SDS011;7822;48.146;11.576;2022-08-19T10:38:50;14.90;;;12.82;;
15443;SDS011;7822;48.146;11.576;2022-08-19T10:41:24;13.57;;;11.90;;
15443;SDS011;7822;48.146;11.576;2022-08-19T10:43:53;13.80;;;12.32;;
15443;SDS011;7822;48.146;11.576;2022-08-19T10:46:29;17.33;;;11.18;;
15443;SDS011;7822;48.146;11.576;2022-08-19T10:49:00;14.60;;;12.20;;
15443;SDS011;7822;48.146;11.576;2022-08-19T11:09:23;10.57;;;9.35;;
15443;SDS011;7822;48.146;11.576;2022-08-19T11:19:27;11.43;;;10.23;;
15443;SDS011;7822;48.146;11.576;2022-08-19T11:21:54;11.05;;;9.95;;
15443;SDS011;7822;48.146;11.576;2022-08-19T11:24:24;12.65;;;11.32;;
15443;SDS011;7822;48.146;11.576;2022-08-19T11:26:54;11.32;;;10.10;;
15443;SDS011;7822;48.146;11.576;2022-08-19T11:54:15;4.50;;;3.83;;
15443;SDS011;7822;48.146;11.576;2022-08-19T11:56:58;5.47;;;3.55;;
15443;SDS011;7822;48.146;11.576;2022-08-19T11:59:41;4.03;;;3.63;;
15443;SDS011;7822;48.146;11.576;2022-08-19T12:02:23;3.90;;;3.60;;
15443;SDS011;7822;48.146;11.576;2022-08-19T12:05:18;3.25;;;2.58;;
15443;SDS011;7822;48.146;11.576;2022-08-19T12:08:00;3.78;;;2.30;;
15443;SDS011;7822;48.146;11.576;2022-08-19T12:13:42;2.95;;;2.38;;
15443;SDS011;7822;48.146;11.576;2022-08-19T12:16:27;1.80;;;1.70;;
15443;SDS011;7822;48.146;11.576;2022-08-19T12:19:10;2.28;;;1.70;;
15443;SDS011;7822;48.146;11.576;2022-08-19T12:21:52;1.67;;;1.33;;
15443;SDS011;7822;48.146;11.576;2022-08-19T12:24:37;2.67;;;1.75;;
15443;SDS011;7822;48.146;11.576;2022-08-19T12:27:20;1.50;;;1.40;;
15443;SDS011;7822;48.146;11.576;2022-08-19T12:30:16;1.73;;;1.55;;
15443;SDS011;7822;48.146;11.576;2022-08-19T12:32:58;1.67;;;1.58;;
15443;SDS011;7822;48.146;11.576;2022-08-19T12:54:02;1.50;;;1.40;;
15443;SDS011;7822;48.146;11.576;2022-08-19T12:56:31;1.60;;;1.50;;
15443;SDS011;7822;48.146;11.576;2022-08-19T12:59:00;1.55;;;1.45;;
15443;SDS011;7822;48.146;11.576;2022-08-19T13:01:28;1.52;;;1.42;;
15443;SDS011;7822;48.146;11.576;2022-08-19T13:03:58;1.50;;;1.40;;
15443;SDS011;7822;48.146;11.576;2022-08-19T13:06:26;1.20;;;1.20;;
15443;SDS011;7822;48.146;11.576;2022-08-19T13:08:54;1.60;;;1.50;;
15443;SDS011;7822;48.146;11.576;2022-08-19T13:11:26;1.80;;;1.50;;
15443;SDS011;7822;48.146;11.576;2022-08-19T13:13:58;1.52;;;1.42;;
15443;SDS011;7822;48.146;11.576;2022-08-19T13:16:27;1.60;;;1.50;;
15443;SDS011;7822;48.146;11.576;2022-08-19T13:18:55;1.77;;;1.60;;
15443;SDS011;7822;48.146;11.576;2022-08-19T13:21:24;1.60;;;1.50;;
15443;SDS011;7822;48.146;11.576;2022-08-19T13:23:56;1.70;;;1.60;;
15443;SDS011;7822;48.146;11.576;2022-08-19T13:26:25;1.50;;;1.40;;
15443;SDS011;7822;48.146;11.576;2022-08-19T13:28:53;1.40;;;1.30;;
15443;SDS011;7822;48.146;11.576;2022-08-19T13:31:39;1.33;;;1.30;;
15443;SDS011;7822;48.146;11.576;2022-08-19T13:34:27;1.52;;;1.42;;
15443;SDS011;7822;48.146;11.576;2022-08-19T13:36:57;1.30;;;1.20;;
15443;SDS011;7822;48.146;11.576;2022-08-19T13:39:25;1.33;;;1.25;;
15443;SDS011;7822;48.146;11.576;2022-08-19T13:41:55;2.05;;;1.52;;
15443;SDS011;7822;48.146;11.576;2022-08-19T13:44:23;1.58;;;1.48;;
15443;SDS011;7822;48.146;11.576;2022-08-19T13:46:50;1.30;;;1.20;;
15443;SDS011;7822;48.146;11.576;2022-08-19T13:49:19;1.95;;;1.83;;
15443;SDS011;7822;48.146;11.576;2022-08-19T13:51:49;2.13;;;1.70;;
15443;SDS011;7822;48.146;11.576;2022-08-19T13:54:17;1.77;;;1.67;;
15443;SDS011;7822;48.146;11.576;2022-08-19T13:56:45;1.88;;;1.77;;
15443;SDS011;7822;48.146;11.576;2022-08-19T13:59:14;2.17;;;2.03;;
15443;SDS011;7822;48.146;11.576;2022-08-19T14:01:42;1.92;;;1.83;;
15443;SDS011;7822;48.146;11.576;2022-08-19T14:04:10;2.30;;;2.10;;
15443;SDS011;7822;48.146;11.576;2022-08-19T14:06:38;2.80;;;2.60;;
15443;SDS011;7822;48.146;11.576;2022-08-19T14:09:05;2.20;;;2.00;;
15443;SDS011;7822;48.146;11.576;2022-08-19T14:11:33;2.58;;;2.38;;
15443;SDS011;7822;48.146;11.576;2022-08-19T14:14:01;2.88;;;2.38;;
15443;SDS011;7822;48.146;11.576;2022-08-19T14:16:30;2.78;;;2.58;;
15443;SDS011;7822;48.146;11.576;2022-08-19T14:18:58;3.22;;;2.92;;
15443;SDS011;7822;48.146;11.576;2022-08-19T14:32:50;2.90;;;2.70;;
15443;SDS011;7822;48.146;11.576;2022-08-19T14:35:18;3.22;;;3.03;;
15443;SDS011;7822;48.146;11.576;2022-08-19T14:37:48;3.45;;;3.15;;
15443;SDS011;7822;48.146;11.576;2022-08-19T14:55:29;3.17;;;2.88;;
15443;SDS011;7822;48.146;11.576;2022-08-19T14:57:57;3.20;;;3.00;;
15443;SDS011;7822;48.146;11.576;2022-08-19T15:00:27;2.90;;;2.60;;
15443;SDS011;7822;48.146;11.576;2022-08-19T15:02:55;2.85;;;2.55;;
15443;SDS011;7822;48.146;11.576;2022-08-19T15:05:25;2.80;;;2.60;;
15443;SDS011;7822;48.146;11.576;2022-08-19T15:19:18;2.65;;;2.33;;
15443;SDS011;7822;48.146;11.576;2022-08-19T15:21:46;3.15;;;2.95;;
15443;SDS011;7822;48.146;11.576;2022-08-19T15:24:13;3.08;;;2.85;;
15443;SDS011;7822;48.146;11.576;2022-08-19T15:34:22;4.07;;;3.78;;
15443;SDS011;7822;48.146;11.576;2022-08-19T16:03:26;6.60;;;5.57;;
15443;SDS011;7822;48.146;11.576;2022-08-19T16:06:12;7.15;;;6.45;;
15443;SDS011;7822;48.146;11.576;2022-08-19T16:08:52;7.35;;;6.65;;
15443;SDS011;7822;48.146;11.576;2022-08-19T16:17:57;7.50;;;6.80;;
15443;SDS011;7822;48.146;11.576;2022-08-19T16:20:38;7.53;;;6.82;;
15443;SDS011;7822;48.146;11.576;2022-08-19T16:23:06;5.68;;;5.18;;
15443;SDS011;7822;48.146;11.576;2022-08-19T16:25:34;6.85;;;6.10;;
15443;SDS011;7822;48.146;11.576;2022-08-19T16:28:02;6.93;;;6.32;;
15443;SDS011;7822;48.146;11.576;2022-08-19T16:30:33;5.70;;;5.20;;
15443;SDS011;7822;48.146;11.576;2022-08-19T16:33:03;6.07;;;5.57;;
15443;SDS011;7822;48.146;11.576;2022-08-19T16:39:13;5.05;;;4.63;;
15443;SDS011;7822;48.146;11.576;2022-08-19T16:41:42;4.90;;;4.50;;
15443;SDS011;7822;48.146;11.576;2022-08-19T16:44:11;5.03;;;4.63;;
15443;SDS011;7822;48.146;11.576;2022-08-19T16:46:41;5.38;;;4.93;;
15443;SDS011;7822;48.146;11.576;2022-08-19T16:49:09;5.20;;;4.80;;
15443;SDS011;7822;48.146;11.576;2022-08-19T16:51:39;6.25;;;5.65;;
15443;SDS011;7822;48.146;11.576;2022-08-19T16:57:51;5.65;;;5.05;;
15443;SDS011;7822;48.146;11.576;2022-08-19T17:07:48;4.90;;;4.50;;
15443;SDS011;7822;48.146;11.576;2022-08-19T17:13:58;4.88;;;4.47;;
15443;SDS011;7822;48.146;11.576;2022-08-19T17:16:28;6.72;;;5.07;;
15443;SDS011;7822;48.146;11.576;2022-08-19T17:18:58;4.25;;;3.85;;
15443;SDS011;7822;48.146;11.576;2022-08-19T17:21:28;4.80;;;4.40;;
15443;SDS011;7822;48.146;11.576;2022-08-19T17:23:58;4.53;;;4.13;;
15443;SDS011;7822;48.146;11.576;2022-08-19T17:26:27;4.50;;;4.10;;
15443;SDS011;7822;48.146;11.576;2022-08-19T17:28:56;4.43;;;4.03;;
15443;SDS011;7822;48.146;11.576;2022-08-19T17:35:20;4.25;;;3.67;;
15443;SDS011;7822;48.146;11.576;2022-08-19T17:44:29;4.05;;;3.70;;
15443;SDS011;7822;48.146;11.576;2022-08-19T17:46:58;4.13;;;3.72;;
15443;SDS011;7822;48.146;11.576;2022-08-19T17:49:26;4.45;;;4.05;;
15443;SDS011;7822;48.146;11.576;2022-08-19T17:51:53;3.92;;;3.63;;
15443;SDS011;7822;48.146;11.576;2022-08-19T17:54:22;4.18;;;3.42;;
15443;SDS011;7822;48.146;11.576;2022-08-19T17:56:59;3.20;;;3.00;;
15443;SDS011;7822;48.146;11.576;2022-08-19T17:59:28;3.38;;;3.08;;
15443;SDS011;7822;48.146;11.576;2022-08-19T18:01:57;3.33;;;3.05;;
15443;SDS011;7822;48.146;11.576;2022-08-19T18:04:35;3.40;;;3.10;;
15443;SDS011;7822;48.146;11.576;2022-08-19T18:07:03;3.20;;;2.90;;
15443;SDS011;7822;48.146;11.576;2022-08-19T18:09:32;3.95;;;3.28;;
15443;SDS011;7822;48.146;11.576;2022-08-19T18:12:08;3.28;;;2.97;;
15443;SDS011;7822;48.146;11.576;2022-08-19T18:14:38;2.83;;;2.63;;
15443;SDS011;7822;48.146;11.576;2022-08-19T18:17:08;3.40;;;3.10;;
15443;SDS011;7822;48.146;11.576;2022-08-19T18:19:38;3.13;;;2.92;;
15443;SDS011;7822;48.146;11.576;2022-08-19T18:22:10;3.28;;;2.83;;
15443;SDS011;7822;48.146;11.576;2022-08-19T18:24:40;3.25;;;3.05;;
15443;SDS011;7822;48.146;11.576;2022-08-19T18:27:11;3.10;;;2.90;;
15443;SDS011;7822;48.146;11.576;2022-08-19T18:29:40;2.92;;;2.72;;
15443;SDS011;7822;48.146;11.576;2022-08-19T18:32:08;3.20;;;3.00;;
15443;SDS011;7822;48.146;11.576;2022-08-19T18:34:38;3.25;;;3.05;;
15443;SDS011;7822;48.146;11.576;2022-08-19T18:37:07;4.05;;;3.65;;
15443;SDS011;7822;48.146;11.576;2022-08-19T18:39:35;3.50;;;3.17;;
15443;SDS011;7822;48.146;11.576;2022-08-19T18:42:20;3.38;;;3.17;;
15443;SDS011;7822;48.146;11.576;2022-08-19T18:45:07;3.70;;;3.40;;
15443;SDS011;7822;48.146;11.576;2022-08-19T18:47:53;3.40;;;3.10;;
15443;SDS011;7822;48.146;11.576;2022-08-19T18:50:53;3.45;;;2.90;;
15443;SDS011;7822;48.146;11.576;2022-08-19T18:53:21;3.53;;;3.22;;
15443;SDS011;7822;48.146;11.576;2022-08-19T18:55:49;4.25;;;3.85;;
15443;SDS011;7822;48.146;11.576;2022-08-19T18:58:19;4.55;;;4.15;;
15443;SDS011;7822;48.146;11.576;2022-08-19T19:00:59;4.88;;;4.47;;
15443;SDS011;7822;48.146;11.576;2022-08-19T19:03:34;5.55;;;5.05;;
15443;SDS011;7822;48.146;11.576;2022-08-19T19:06:02;5.95;;;5.22;;
15443;SDS011;7822;48.146;11.576;2022-08-19T19:08:31;5.75;;;5.25;;
15443;SDS011;7822;48.146;11.576;2022-08-19T19:10:59;6.00;;;5.50;;
15443;SDS011;7822;48.146;11.576;2022-08-19T19:24:54;7.32;;;6.63;;
15443;SDS011;7822;48.146;11.576;2022-08-19T19:27:24;6.82;;;6.22;;
15443;SDS011;7822;48.146;11.576;2022-08-19T19:29:52;7.10;;;6.40;;
15443;SDS011;7822;48.146;11.576;2022-08-19T19:32:21;7.05;;;6.45;;
15443;SDS011;7822;48.146;11.576;2022-08-19T19:34:51;7.78;;;7.10;;
15443;SDS011;7822;48.146;11.576;2022-08-19T19:37:19;7.13;;;6.53;;
15443;SDS011;7822;48.146;11.576;2022-08-19T19:39:47;7.05;;;6.35;;
15443;SDS011;7822;48.146;11.576;2022-08-19T19:42:18;7.45;;;6.82;;
15443;SDS011;7822;48.146;11.576;2022-08-19T19:44:49;7.53;;;6.78;;
15443;SDS011;7822;48.146;11.576;2022-08-19T19:47:20;8.10;;;7.32;;
15443;SDS011;7822;48.146;11.576;2022-08-19T19:49:49;8.23;;;7.28;;
15443;SDS011;7822;48.146;11.576;2022-08-19T19:52:37;7.85;;;7.10;;
15443;SDS011;7822;48.146;11.576;2022-08-19T19:55:05;7.88;;;7.05;;
15443;SDS011;7822;48.146;11.576;2022-08-19T19:57:36;8.10;;;7.28;;
15443;SDS011;7822;48.146;11.576;2022-08-19T20:00:05;7.22;;;6.65;;
15443;SDS011;7822;48.146;11.576;2022-08-19T20:20:34;7.32;;;6.63;;
15443;SDS011;7822;48.146;11.576;2022-08-19T20:23:02;7.03;;;6.32;;
15443;SDS011;7822;48.146;11.576;2022-08-19T20:25:35;8.40;;;7.53;;
15443;SDS011;7822;48.146;11.576;2022-08-19T20:28:08;8.23;;;7.43;;
15443;SDS011;7822;48.146;11.576;2022-08-19T20:30:37;8.18;;;6.88;;
15443;SDS011;7822;48.146;11.576;2022-08-19T20:44:54;6.25;;;5.65;;
15443;SDS011;7822;48.146;11.576;2022-08-19T20:47:22;6.13;;;5.53;;
15443;SDS011;7822;48.146;11.576;2022-08-19T20:49:50;6.68;;;5.97;;
15443;SDS011;7822;48.146;11.576;2022-08-19T20:52:18;7.07;;;6.45;;
15443;SDS011;7822;48.146;11.576;2022-08-19T20:54:46;7.55;;;6.85;;
15443;SDS011;7822;48.146;11.576;2022-08-19T20:57:13;7.13;;;6.53;;
15443;SDS011;7822;48.146;11.576;2022-08-19T20:59:41;7.22;;;6.63;;
15443;SDS011;7822;48.146;11.576;2022-08-19T21:02:11;6.78;;;6.22;;
15443;SDS011;7822;48.146;11.576;2022-08-19T21:04:39;6.97;;;6.28;;
15443;SDS011;7822;48.146;11.576;2022-08-19T21:07:07;7.50;;;6.85;;
15443;SDS011;7822;48.146;11.576;2022-08-19T21:09:34;6.93;;;6.22;;
15443;SDS011;7822;48.146;11.576;2022-08-19T21:12:03;6.78;;;6.18;;
15443;SDS011;7822;48.146;11.576;2022-08-19T21:14:32;7.45;;;6.75;;
15443;SDS011;7822;48.146;11.576;2022-08-19T21:17:00;7.40;;;6.70;;
15443;SDS011;7822;48.146;11.576;2022-08-19T21:19:29;7.07;;;6.38;;
15443;SDS011;7822;48.146;11.576;2022-08-19T21:21:57;7.63;;;6.93;;
15443;SDS011;7822;48.146;11.576;2022-08-19T21:24:26;7.43;;;6.72;;
15443;SDS011;7822;48.146;11.576;2022-08-19T21:26:56;7.82;;;6.97;;
15443;SDS011;7822;48.146;11.576;2022-08-19T21:29:30;7.45;;;6.82;;
15443;SDS011;7822;48.146;11.576;2022-08-19T21:33:15;7.38;;;6.68;;
15443;SDS011;7822;48.146;11.576;2022-08-19T21:35:44;7.90;;;7.18;;
15443;SDS011;7822;48.146;11.576;2022-08-19T21:38:12;8.05;;;7.35;;
15443;SDS011;7822;48.146;11.576;2022-08-19T21:40:40;7.75;;;7.05;;
15443;SDS011;7822;48.146;11.576;2022-08-19T21:43:08;6.90;;;6.30;;
15443;SDS011;7822;48.146;11.576;2022-08-19T21:45:35;7.93;;;7.22;;
15443;SDS011;7822;48.146;11.576;2022-08-19T21:48:03;7.20;;;6.60;;
15443;SDS011;7822;48.146;11.576;2022-08-19T21:54:14;7.18;;;6.47;;
15443;SDS011;7822;48.146;11.576;2022-08-19T21:56:42;7.68;;;6.97;;